Weather at Duc My Airstrip [CLOSED]

Public forecast

Using degrees Celsius for public forecast. Weather courtesy of forecast.io.

Closest aviation weather report (METAR) to Duc My Airstrip

Closest report is Cam Ranh International Airport / Cam Ranh Air Base, 34.7 nm (64.3 km) SSE.

2024/06/19 15:30 (retrieved 33 minutes ago)

VVCR 191530Z 20004KT 9999 FEW015 BKN050 30/24 Q1006 NOSIG

Closest aviation forecast (TAF) to Duc My Airstrip

Closest forecast is Cam Ranh International Airport / Cam Ranh Air Base, 34.7 nm (64.3 km) SSE.

2024/06/19 12:00 (retrieved 4 hours ago)

TAF VVCR 191100Z 1912/2012 24008KT 9999 FEW015 TEMPO 1912/1914 4500 TSRA SCT013 FEW015CB BKN050 BECMG 2004/2005 13010KT TEMPO 2008/2012 25015KT 4000 TSRA SCT013 FEW015CB BKN050